Time;durP1;ratioP1;P1;durP2;ratioP2;P2;SDS_P1;SDS_P2;PMS_P1;PMS_P2;Temp;Humidity;BMP_temperature;BMP_pressure;BME280_temperature;BME280_humidity;BME280_pressure;Samples;Min_cycle;Max_cycle;Signal;HPM_P1;HPM_P2
2023/09/19 00:00:43;;;;;;;0.00;0.00;;;16.30;99.90;;;;;;6215645;23;20340;-85
2023/09/19 00:03:09;;;;;;;0.00;0.00;;;16.10;99.90;;;;;;6214826;23;20008;-84
2023/09/19 00:05:36;;;;;;;0.00;0.00;;;16.20;99.90;;;;;;6215145;23;20001;-85
2023/09/19 00:08:04;;;;;;;0.00;0.00;;;16.20;99.90;;;;;;6214900;23;20012;-87
2023/09/19 00:10:34;;;;;;;0.00;0.00;;;16.10;99.90;;;;;;6214708;23;20088;-86
2023/09/19 00:13:06;;;;;;;0.00;0.00;;;16.20;99.90;;;;;;6215046;23;20013;-85
2023/09/19 00:15:37;;;;;;;0.00;0.00;;;16.10;99.90;;;;;;6214403;23;20009;-84
2023/09/19 00:18:06;;;;;;;0.00;0.00;;;16.10;99.90;;;;;;6212895;23;20005;-86
2023/09/19 00:20:31;;;;;;;0.00;0.00;;;16.00;99.90;;;;;;6213773;23;20036;-86
2023/09/19 00:23:05;;;;;;;0.00;0.00;;;;;;;;;;6214571;23;20005;-85
2023/09/19 00:25:32;;;;;;;0.00;0.00;;;;;;;;;;6214649;23;20004;-86
2023/09/19 00:27:58;;;;;;;0.00;0.00;;;;;;;;;;6214370;23;20418;-87
2023/09/19 00:30:24;;;;;;;0.00;0.00;;;16.00;99.90;;;;;;6214869;23;20099;-85
2023/09/19 00:32:54;;;;;;;0.00;0.00;;;16.10;99.90;;;;;;6214725;23;20432;-85
2023/09/19 00:35:24;;;;;;;0.00;0.00;;;16.10;99.90;;;;;;6214559;23;20391;-86
2023/09/19 00:37:50;;;;;;;0.00;0.00;;;;;;;;;;6214742;23;20004;-85
2023/09/19 00:40:16;;;;;;;0.00;0.00;;;;;;;;;;6213906;23;20001;-84
2023/09/19 00:42:43;;;;;;;0.10;0.10;;;16.30;99.90;;;;;;6214520;23;20000;-86
2023/09/19 00:45:12;;;;;;;0.00;0.00;;;16.30;99.90;;;;;;6212926;23;20659;-84
2023/09/19 00:47:41;;;;;;;0.00;0.00;;;16.20;99.90;;;;;;6213865;23;20004;-84
2023/09/19 00:50:09;;;;;;;0.00;0.00;;;16.10;99.90;;;;;;6212430;23;20004;-87
2023/09/19 00:52:39;;;;;;;0.00;0.00;;;16.20;99.90;;;;;;6214369;23;20016;-84
2023/09/19 00:55:09;;;;;;;0.00;0.00;;;16.20;99.90;;;;;;6213577;23;20084;-85
2023/09/19 00:57:38;;;;;;;0.00;0.00;;;16.20;99.90;;;;;;6189336;23;20008;-86
2023/09/19 01:00:08;;;;;;;0.00;0.00;;;16.00;99.90;;;;;;6213802;23;20004;-85
2023/09/19 01:02:35;;;;;;;0.00;0.00;;;15.90;99.90;;;;;;6213351;23;20015;-85
2023/09/19 01:05:01;;;;;;;0.03;0.03;;;16.00;99.90;;;;;;6214005;23;20031;-86
2023/09/19 01:07:29;;;;;;;0.00;0.00;;;16.10;99.90;;;;;;6214364;23;20788;-86
2023/09/19 01:09:59;;;;;;;0.00;0.00;;;16.30;99.90;;;;;;6213618;23;20000;-86
2023/09/19 01:12:35;;;;;;;0.00;0.00;;;16.20;99.90;;;;;;6214379;23;20047;-87
2023/09/19 01:15:10;;;;;;;0.00;0.00;;;16.30;99.90;;;;;;6213398;23;20005;-85
2023/09/19 01:17:55;;;;;;;0.00;0.00;;;16.40;99.90;;;;;;6213643;23;20013;-85
2023/09/19 01:20:38;;;;;;;0.00;0.00;;;16.30;99.90;;;;;;6213980;23;20190;-85
2023/09/19 01:23:11;;;;;;;0.00;0.00;;;16.30;99.90;;;;;;6213971;23;20016;-85
2023/09/19 01:26:02;;;;;;;0.00;0.00;;;16.40;99.90;;;;;;6213962;23;20000;-85
2023/09/19 01:28:57;;;;;;;0.00;0.00;;;16.50;99.90;;;;;;6213188;23;20015;-84
2023/09/19 01:31:24;;;;;;;0.00;0.00;;;16.30;99.90;;;;;;6209056;23;20456;-87
2023/09/19 01:34:03;;;;;;;0.00;0.00;;;16.30;99.90;;;;;;6213536;23;20004;-86
2023/09/19 01:36:35;;;;;;;0.00;0.00;;;16.30;99.90;;;;;;6211195;23;20012;-85
2023/09/19 01:39:10;;;;;;;0.00;0.00;;;16.30;99.90;;;;;;6212772;23;20008;-86
2023/09/19 01:41:49;;;;;;;0.00;0.00;;;16.30;99.90;;;;;;6214130;23;20325;-85
2023/09/19 01:44:25;;;;;;;0.00;0.00;;;16.20;99.90;;;;;;6213392;23;20000;-85
2023/09/19 01:46:54;;;;;;;0.00;0.00;;;16.20;99.90;;;;;;6213872;23;20040;-84
2023/09/19 01:49:52;;;;;;;0.00;0.00;;;16.20;99.90;;;;;;6212850;23;20005;-85
2023/09/19 01:52:20;;;;;;;0.00;0.00;;;16.20;99.90;;;;;;6206265;23;20047;-85
2023/09/19 01:54:52;;;;;;;0.00;0.00;;;16.20;99.90;;;;;;6189040;23;20509;-85
2023/09/19 01:57:29;;;;;;;0.00;0.00;;;16.10;99.90;;;;;;6188614;23;20005;-85
2023/09/19 02:00:06;;;;;;;0.00;0.00;;;16.20;99.90;;;;;;6187976;23;20004;-85
2023/09/19 02:02:36;;;;;;;0.00;0.00;;;16.20;99.90;;;;;;6188162;23;20090;-85
2023/09/19 02:05:03;;;;;;;0.00;0.00;;;16.30;99.90;;;;;;6187557;23;20080;-86
2023/09/19 02:07:31;;;;;;;0.00;0.00;;;16.40;99.90;;;;;;6187531;23;20001;-86
2023/09/19 02:10:00;;;;;;;0.00;0.00;;;16.20;99.90;;;;;;6188850;23;20004;-85
2023/09/19 02:12:28;;;;;;;0.00;0.00;;;16.20;99.90;;;;;;6187568;23;20079;-84
2023/09/19 02:14:54;;;;;;;0.00;0.00;;;16.20;99.90;;;;;;6214328;23;20005;-85
2023/09/19 02:17:20;;;;;;;0.00;0.00;;;;;;;;;;6188649;23;20126;-84
2023/09/19 02:19:46;;;;;;;0.00;0.00;;;;;;;;;;6189531;23;20035;-85
2023/09/19 02:22:12;;;;;;;0.00;0.00;;;;;;;;;;6189495;23;20383;-84
2023/09/19 02:24:38;;;;;;;0.00;0.00;;;;;;;;;;6189011;23;20051;-85
2023/09/19 02:27:04;;;;;;;0.00;0.00;;;15.90;99.90;;;;;;6189089;23;20005;-84
2023/09/19 02:29:31;;;;;;;0.00;0.00;;;16.00;99.90;;;;;;6163648;23;20012;-85
2023/09/19 02:31:56;;;;;;;0.00;0.00;;;16.00;99.90;;;;;;6188666;23;20004;-86
2023/09/19 02:34:22;;;;;;;0.00;0.00;;;;;;;;;;6189349;23;20039;-85
2023/09/19 02:36:48;;;;;;;0.00;0.00;;;16.10;99.90;;;;;;6188727;23;20005;-84
2023/09/19 02:39:14;;;;;;;0.00;0.00;;;;;;;;;;6189440;23;20008;-86
2023/09/19 02:41:41;;;;;;;0.00;0.00;;;;;;;;;;6215569;23;20001;-85
2023/09/19 02:44:07;;;;;;;0.10;0.10;;;16.00;99.90;;;;;;6188658;23;20382;-85
2023/09/19 02:46:33;;;;;;;0.00;0.00;;;16.10;99.90;;;;;;6189196;23;20058;-85
2023/09/19 02:48:59;;;;;;;0.00;0.00;;;16.00;99.90;;;;;;6189214;23;20008;-85
2023/09/19 02:51:25;;;;;;;0.00;0.00;;;16.10;99.90;;;;;;6188686;23;20008;-85
2023/09/19 02:53:54;;;;;;;0.00;0.00;;;;;;;;;;6205616;23;20016;-85
2023/09/19 02:56:20;;;;;;;0.00;0.00;;;;;;;;;;6213909;23;20028;-85
2023/09/19 02:58:46;;;;;;;0.00;0.00;;;16.00;99.90;;;;;;6214830;23;20043;-85
2023/09/19 03:01:12;;;;;;;0.00;0.00;;;16.20;99.90;;;;;;6214124;23;20478;-84
2023/09/19 03:03:38;;;;;;;0.00;0.00;;;16.10;99.90;;;;;;6214044;23;20004;-83
2023/09/19 03:06:08;;;;;;;0.00;0.00;;;16.20;99.90;;;;;;6215209;23;20012;-85
2023/09/19 03:08:36;;;;;;;0.00;0.00;;;;;;;;;;6213940;23;20036;-84
2023/09/19 03:11:05;;;;;;;0.00;0.00;;;16.30;99.90;;;;;;6213762;23;20458;-85
2023/09/19 03:13:31;;;;;;;0.00;0.00;;;;;;;;;;6214249;23;20005;-85
2023/09/19 03:15:58;;;;;;;0.00;0.00;;;16.30;99.90;;;;;;6212645;23;20005;-85
2023/09/19 03:18:25;;;;;;;0.00;0.00;;;16.20;99.90;;;;;;6211952;23;20207;-85
2023/09/19 03:20:59;;;;;;;0.00;0.00;;;16.20;99.90;;;;;;6213195;23;20466;-85
2023/09/19 03:23:26;;;;;;;0.00;0.00;;;;;;;;;;6212143;23;20004;-85
2023/09/19 03:25:52;;;;;;;0.00;0.00;;;16.10;99.90;;;;;;6213232;23;20332;-84
2023/09/19 03:28:18;;;;;;;0.00;0.00;;;16.10;99.90;;;;;;6213855;23;20007;-86
2023/09/19 03:30:44;;;;;;;0.00;0.00;;;;;;;;;;6213743;23;20044;-85
2023/09/19 03:33:12;;;;;;;0.00;0.00;;;16.10;99.90;;;;;;6214125;23;20383;-85
2023/09/19 03:35:39;;;;;;;0.00;0.00;;;16.10;99.90;;;;;;6213342;23;20095;-85
2023/09/19 03:38:05;;;;;;;0.00;0.00;;;16.10;99.90;;;;;;6214602;23;20086;-84
2023/09/19 03:40:31;;;;;;;0.00;0.00;;;;;;;;;;6214468;23;20008;-84
2023/09/19 03:43:00;;;;;;;0.00;0.00;;;16.00;99.90;;;;;;6214281;23;20004;-85
2023/09/19 03:45:26;;;;;;;0.00;0.00;;;;;;;;;;6212797;23;20027;-85
2023/09/19 03:47:51;;;;;;;0.00;0.00;;;15.90;99.90;;;;;;6212744;23;20220;-85
2023/09/19 03:50:17;;;;;;;0.00;0.00;;;;;;;;;;6212753;23;20016;-86
2023/09/19 03:52:44;;;;;;;0.00;0.00;;;;;;;;;;6213238;23;20539;-85
2023/09/19 03:55:09;;;;;;;0.00;0.00;;;15.60;99.90;;;;;;6212324;23;20088;-83
2023/09/19 03:57:36;;;;;;;0.00;0.00;;;15.70;99.90;;;;;;6211605;23;20118;-85
2023/09/19 04:00:02;;;;;;;0.00;0.00;;;15.60;99.90;;;;;;6212867;23;20008;-85
2023/09/19 04:02:32;;;;;;;0.00;0.00;;;15.90;99.90;;;;;;6213117;23;20005;-84
2023/09/19 04:04:58;;;;;;;0.00;0.00;;;15.80;99.90;;;;;;6212874;23;20000;-84
2023/09/19 04:07:28;;;;;;;0.00;0.00;;;;;;;;;;6213697;23;20336;-84
2023/09/19 04:09:54;;;;;;;0.00;0.00;;;15.70;99.90;;;;;;6213465;23;20008;-84
2023/09/19 04:12:20;;;;;;;0.00;0.00;;;;;;;;;;6213039;23;20012;-85
2023/09/19 04:14:46;;;;;;;0.00;0.00;;;;;;;;;;6213574;23;20008;-84
2023/09/19 04:17:12;;;;;;;0.00;0.00;;;;;;;;;;6213476;23;20391;-86
2023/09/19 04:19:38;;;;;;;0.00;0.00;;;;;;;;;;6214525;23;20739;-84
2023/09/19 04:22:04;;;;;;;0.00;0.00;;;15.80;99.90;;;;;;6213789;23;20143;-84
2023/09/19 04:24:30;;;;;;;0.00;0.00;;;15.60;99.90;;;;;;6213725;23;20008;-85
2023/09/19 04:26:57;;;;;;;0.00;0.00;;;;;;;;;;6213126;23;20001;-85
2023/09/19 04:29:22;;;;;;;0.00;0.00;;;15.60;99.90;;;;;;6212100;23;20005;-86
2023/09/19 04:31:48;;;;;;;0.00;0.00;;;;;;;;;;6213954;23;20009;-85
2023/09/19 04:34:15;;;;;;;0.00;0.00;;;;;;;;;;6213977;23;20024;-85
2023/09/19 04:36:41;;;;;;;0.00;0.00;;;15.60;99.90;;;;;;6214939;23;20031;-86
2023/09/19 04:39:07;;;;;;;0.00;0.00;;;;;;;;;;6215751;23;20428;-85
2023/09/19 04:41:34;;;;;;;0.10;0.10;;;15.70;99.90;;;;;;6217279;23;20075;-85
2023/09/19 04:44:00;;;;;;;0.00;0.00;;;;;;;;;;6214473;23;20421;-84
2023/09/19 04:46:26;;;;;;;0.00;0.00;;;;;;;;;;6215421;23;20008;-85
2023/09/19 04:48:51;;;;;;;0.00;0.00;;;;;;;;;;6214785;23;19997;-85
2023/09/19 04:51:18;;;;;;;0.00;0.00;;;;;;;;;;6214360;23;20054;-87
2023/09/19 04:53:44;;;;;;;0.00;0.00;;;15.70;99.90;;;;;;6214472;23;20379;-87
2023/09/19 04:56:10;;;;;;;0.00;0.00;;;;;;;;;;6214159;23;20012;-83
2023/09/19 04:58:36;;;;;;;0.00;0.00;;;;;;;;;;6215132;23;20004;-84
2023/09/19 05:01:02;;;;;;;0.00;0.00;;;;;;;;;;6215626;23;20005;-85
2023/09/19 05:03:29;;;;;;;0.00;0.00;;;15.60;99.90;;;;;;6215020;23;20004;-85
2023/09/19 05:05:54;;;;;;;0.08;0.08;;;15.50;99.90;;;;;;6215563;23;20050;-85
2023/09/19 05:08:22;;;;;;;0.00;0.00;;;15.40;99.90;;;;;;6213957;23;20021;-85
2023/09/19 05:10:48;;;;;;;0.00;0.00;;;15.20;99.90;;;;;;6213938;23;20502;-84
2023/09/19 05:13:15;;;;;;;0.00;0.00;;;;;;;;;;6214434;23;20012;-86
2023/09/19 05:15:40;;;;;;;0.00;0.00;;;15.20;99.90;;;;;;6214279;23;20009;-85
2023/09/19 05:18:06;;;;;;;0.00;0.00;;;;;;;;;;6213763;23;20088;-84
2023/09/19 05:20:34;;;;;;;0.00;0.00;;;;;;;;;;6213826;23;20012;-86
2023/09/19 05:23:02;;;;;;;0.00;0.00;;;15.20;99.90;;;;;;6214009;23;20008;-85
2023/09/19 05:25:29;;;;;;;0.00;0.00;;;15.10;99.90;;;;;;6214110;23;20004;-84
2023/09/19 05:27:57;;;;;;;0.00;0.00;;;15.10;99.90;;;;;;6214751;23;20008;-86
2023/09/19 05:30:23;;;;;;;0.00;0.00;;;15.00;99.90;;;;;;6214033;23;20004;-86
2023/09/19 05:32:49;;;;;;;0.00;0.00;;;;;;;;;;6214731;23;20332;-86
2023/09/19 05:35:15;;;;;;;0.00;0.00;;;;;;;;;;6214654;23;20007;-85
2023/09/19 05:37:41;;;;;;;0.00;0.00;;;15.10;99.90;;;;;;6213927;23;20009;-85
2023/09/19 05:40:11;;;;;;;0.00;0.00;;;15.00;99.90;;;;;;6213817;23;20317;-86
2023/09/19 05:42:39;;;;;;;0.00;0.00;;;14.80;99.90;;;;;;6213937;23;20004;-85
2023/09/19 05:45:06;;;;;;;0.00;0.00;;;14.90;99.90;;;;;;6214018;23;20004;-86
2023/09/19 05:47:32;;;;;;;0.00;0.00;;;14.70;99.90;;;;;;6213082;23;20048;-85
2023/09/19 05:49:59;;;;;;;0.00;0.00;;;;;;;;;;6213926;23;20001;-86
2023/09/19 05:52:26;;;;;;;0.00;0.00;;;14.90;99.90;;;;;;6214063;23;20082;-86
2023/09/19 05:54:52;;;;;;;0.00;0.00;;;;;;;;;;6189585;23;20007;-86
2023/09/19 05:57:18;;;;;;;0.00;0.00;;;;;;;;;;6189597;23;20008;-86
2023/09/19 05:59:44;;;;;;;0.00;0.00;;;14.90;99.90;;;;;;6213979;23;20329;-85
2023/09/19 06:02:12;;;;;;;0.00;0.00;;;;;;;;;;6215964;23;20086;-86
2023/09/19 06:04:40;;;;;;;0.00;0.00;;;14.80;99.90;;;;;;6189170;23;20003;-85
2023/09/19 06:07:06;;;;;;;0.00;0.00;;;;;;;;;;6189265;23;20051;-85
2023/09/19 06:09:33;;;;;;;0.10;0.10;;;;;;;;;;6214976;23;20009;-87
2023/09/19 06:12:03;;;;;;;0.00;0.00;;;14.90;99.90;;;;;;6188779;23;20012;-85
2023/09/19 06:14:29;;;;;;;0.00;0.00;;;;;;;;;;6188325;23;20008;-86
2023/09/19 06:16:55;;;;;;;0.00;0.00;;;;;;;;;;6188926;23;20012;-86
2023/09/19 06:19:22;;;;;;;0.10;0.10;;;;;;;;;;6188494;23;20027;-85
2023/09/19 06:21:53;;;;;;;0.00;0.00;;;14.90;99.90;;;;;;6188643;23;20017;-88
2023/09/19 06:24:21;;;;;;;0.00;0.00;;;;;;;;;;6215566;23;19993;-86
2023/09/19 06:26:47;;;;;;;0.00;0.00;;;14.90;99.90;;;;;;6188687;23;19997;-86
2023/09/19 06:29:14;;;;;;;0.00;0.00;;;;;;;;;;6188197;23;20104;-86
2023/09/19 06:31:39;;;;;;;0.00;0.00;;;14.90;99.90;;;;;;6189082;23;20083;-86
2023/09/19 06:34:06;;;;;;;0.00;0.00;;;;;;;;;;6188470;23;20119;-86
2023/09/19 06:36:32;;;;;;;0.00;0.00;;;15.00;99.90;;;;;;6189714;23;20092;-84
2023/09/19 06:38:59;;;;;;;0.00;0.00;;;;;;;;;;6189515;23;20059;-85
2023/09/19 06:41:24;;;;;;;0.00;0.00;;;14.70;99.90;;;;;;6189346;23;20019;-85
2023/09/19 06:43:53;;;;;;;0.00;0.00;;;;;;;;;;6188770;23;20032;-85
2023/09/19 06:46:19;;;;;;;0.00;0.00;;;14.90;99.90;;;;;;6189075;23;19997;-85
2023/09/19 06:48:47;;;;;;;0.05;0.05;;;15.00;99.90;;;;;;6189280;23;20011;-86
2023/09/19 06:51:15;;;;;;;0.00;0.00;;;;;;;;;;6188964;23;20071;-86
2023/09/19 06:53:41;;;;;;;0.00;0.00;;;;;;;;;;6205010;23;20340;-87
2023/09/19 06:56:07;;;;;;;0.00;0.00;;;;;;;;;;6215052;23;20001;-85
2023/09/19 06:58:36;;;;;;;0.00;0.00;;;;;;;;;;6214262;23;20011;-87
2023/09/19 07:01:03;;;;;;;0.00;0.00;;;;;;;;;;6214141;23;20027;-87
2023/09/19 07:03:29;;;;;;;0.00;0.00;;;;;;;;;;6214305;23;20395;-86
2023/09/19 07:05:55;;;;;;;0.00;0.00;;;15.20;99.90;;;;;;6212498;23;20309;-86
2023/09/19 07:08:21;;;;;;;0.00;0.00;;;15.40;99.90;;;;;;6213346;23;20004;-86
2023/09/19 07:10:54;;;;;;;0.00;0.00;;;;;;;;;;6213222;23;20015;-86
2023/09/19 07:13:19;;;;;;;0.00;0.00;;;15.50;99.90;;;;;;6213745;23;20011;-85
2023/09/19 07:15:49;;;;;;;0.00;0.00;;;15.30;99.90;;;;;;6213495;23;20036;-85
2023/09/19 07:18:16;;;;;;;0.00;0.00;;;15.40;99.90;;;;;;6214333;23;20335;-86
2023/09/19 07:20:49;;;;;;;0.00;0.00;;;15.50;99.90;;;;;;6213682;23;20444;-86
2023/09/19 07:23:25;;;;;;;0.00;0.00;;;15.40;99.90;;;;;;6214170;23;20075;-84
2023/09/19 07:25:51;;;;;;;0.00;0.00;;;;;;;;;;6213767;23;20000;-87
2023/09/19 07:28:18;;;;;;;0.00;0.00;;;15.60;99.90;;;;;;6214034;23;20012;-86
2023/09/19 07:30:44;;;;;;;0.00;0.00;;;;;;;;;;6213867;23;20455;-86
2023/09/19 07:33:13;;;;;;;0.00;0.00;;;15.60;99.90;;;;;;6214255;23;20004;-87
2023/09/19 07:35:42;;;;;;;0.00;0.00;;;15.60;99.90;;;;;;6213091;23;20001;-85
2023/09/19 07:38:11;;;;;;;0.00;0.00;;;;;;;;;;6214091;23;20001;-87
2023/09/19 07:40:37;;;;;;;0.00;0.00;;;;;;;;;;6214502;23;20004;-85
2023/09/19 07:43:04;;;;;;;0.00;0.00;;;;;;;;;;6214118;23;20351;-86
2023/09/19 07:45:30;;;;;;;0.00;0.00;;;;;;;;;;6213876;23;20340;-86
2023/09/19 07:47:56;;;;;;;0.00;0.00;;;15.70;99.90;;;;;;6213796;23;20339;-85
2023/09/19 07:50:23;;;;;;;0.00;0.00;;;;;;;;;;6213561;23;20076;-84
2023/09/19 07:52:50;;;;;;;0.00;0.00;;;15.90;99.90;;;;;;6213247;23;20023;-87
2023/09/19 07:55:16;;;;;;;0.00;0.00;;;15.90;99.90;;;;;;6213324;23;20015;-86
2023/09/19 07:57:43;;;;;;;0.00;0.00;;;15.90;99.90;;;;;;6214004;23;20012;-86
2023/09/19 08:00:12;;;;;;;0.00;0.00;;;16.00;99.90;;;;;;6213360;23;20343;-86
2023/09/19 08:02:39;;;;;;;0.00;0.00;;;;;;;;;;6214557;23;20471;-86
2023/09/19 08:05:15;;;;;;;0.00;0.00;;;;;;;;;;6214759;23;20001;-86
2023/09/19 08:07:45;;;;;;;0.00;0.00;;;16.20;99.90;;;;;;6213986;23;20344;-86
2023/09/19 08:10:15;;;;;;;0.00;0.00;;;;;;;;;;6214327;23;20027;-86
2023/09/19 08:12:48;;;;;;;0.00;0.00;;;;;;;;;;6216434;23;20027;-87
2023/09/19 08:15:18;;;;;;;0.00;0.00;;;16.30;99.90;;;;;;6216077;23;20474;-86
2023/09/19 08:17:44;;;;;;;0.00;0.00;;;16.60;99.90;;;;;;6215021;23;20008;-86
2023/09/19 08:20:20;;;;;;;0.00;0.00;;;16.40;99.90;;;;;;6216155;23;20004;-85
2023/09/19 08:22:56;;;;;;;0.00;0.00;;;16.50;99.90;;;;;;6216163;23;20009;-86
2023/09/19 08:25:23;;;;;;;0.00;0.00;;;;;;;;;;6216133;23;20007;-86
2023/09/19 08:27:49;;;;;;;0.00;0.00;;;16.60;99.90;;;;;;6215808;23;20603;-85
2023/09/19 08:30:24;;;;;;;0.00;0.00;;;16.60;99.90;;;;;;6215695;23;20347;-86
2023/09/19 08:32:59;;;;;;;0.00;0.00;;;16.90;99.90;;;;;;6217067;23;20035;-85
2023/09/19 08:35:25;;;;;;;0.00;0.00;;;17.00;99.90;;;;;;6215255;23;20008;-85
2023/09/19 08:37:51;;;;;;;0.00;0.00;;;;;;;;;;6215360;23;20062;-86
2023/09/19 08:40:17;;;;;;;0.00;0.00;;;;;;;;;;6214790;23;20012;-86
2023/09/19 08:42:54;;;;;;;0.00;0.00;;;17.10;99.90;;;;;;6210781;23;20092;-86
2023/09/19 08:45:24;;;;;;;0.00;0.00;;;17.20;99.90;;;;;;6214272;23;20008;-85
2023/09/19 08:48:11;;;;;;;0.00;0.00;;;17.10;99.90;;;;;;6213346;23;20028;-86
2023/09/19 08:50:55;;;;;;;0.00;0.00;;;17.00;99.90;;;;;;6214973;23;20004;-87
2023/09/19 08:53:50;;;;;;;0.00;0.00;;;17.20;99.90;;;;;;6214138;23;20016;-87
2023/09/19 08:56:18;;;;;;;0.00;0.00;;;17.20;99.90;;;;;;6214020;23;20004;-87
2023/09/19 09:01:15;;;;;;;0.00;0.00;;;17.50;99.90;;;;;;6270715;22;20016;-85
2023/09/19 09:03:43;;;;;;;0.00;0.00;;;17.50;99.90;;;;;;6272323;22;20004;-83
2023/09/19 09:06:11;;;;;;;0.00;0.00;;;17.70;99.90;;;;;;6245552;22;20061;-83
2023/09/19 09:08:37;;;;;;;0.00;0.00;;;;;;;;;;6227754;23;20005;-81
2023/09/19 09:11:03;;;;;;;0.00;0.00;;;;;;;;;;6214959;23;20011;-85
2023/09/19 09:13:29;;;;;;;0.00;0.00;;;;;;;;;;6214556;23;19996;-84
2023/09/19 09:15:55;;;;;;;0.00;0.00;;;;;;;;;;6214418;23;20410;-83
2023/09/19 09:18:22;;;;;;;0.00;0.00;;;;;;;;;;6214601;23;20011;-85
2023/09/19 09:20:48;;;;;;;0.00;0.00;;;;;;;;;;6214856;23;19996;-82
2023/09/19 09:23:14;;;;;;;0.00;0.00;;;;;;;;;;6213616;23;20011;-85
2023/09/19 09:25:54;;;;;;;0.00;0.00;;;18.00;99.90;;;;;;6214231;23;20004;-84
2023/09/19 09:28:25;;;;;;;0.00;0.00;;;18.10;99.90;;;;;;6214640;23;20435;-84
2023/09/19 09:30:51;;;;;;;0.00;0.00;;;18.10;99.90;;;;;;6213062;23;20008;-85
2023/09/19 09:33:17;;;;;;;0.00;0.00;;;;;;;;;;6214836;23;20339;-85
2023/09/19 09:35:56;;;;;;;0.00;0.00;;;18.20;99.90;;;;;;6214995;23;20518;-83
2023/09/19 09:38:27;;;;;;;0.00;0.00;;;18.30;99.90;;;;;;6214263;23;20031;-81
2023/09/19 09:40:59;;;;;;;0.00;0.00;;;18.50;99.90;;;;;;6213535;23;20008;-85
2023/09/19 09:43:28;;;;;;;0.00;0.00;;;18.50;99.90;;;;;;6214842;23;20004;-85
2023/09/19 09:49:18;;;;;;;0.00;0.00;;;18.70;99.90;;;;;;6242232;22;20010;-85
2023/09/19 09:52:16;;;;;;;0.00;0.00;;;18.70;99.90;;;;;;6215014;23;20455;-84
2023/09/19 09:58:18;;;;;;;0.00;0.00;;;18.90;99.90;;;;;;6240324;22;20047;-84
2023/09/19 10:00:57;;;;;;;0.00;0.00;;;18.90;99.90;;;;;;6211472;23;20023;-85
2023/09/19 10:03:38;;;;;;;0.00;0.00;;;18.80;99.90;;;;;;6214551;23;20012;-85
2023/09/19 10:06:24;;;;;;;0.00;0.00;;;18.80;99.90;;;;;;6241413;23;20075;-85
2023/09/19 10:09:19;;;;;;;0.00;0.00;;;18.80;99.90;;;;;;6241125;22;20638;-85
2023/09/19 10:12:02;;;;;;;0.00;0.00;;;18.80;99.90;;;;;;6214796;23;20004;-85
2023/09/19 10:14:32;;;;;;;0.00;0.00;;;18.90;99.90;;;;;;6214730;23;20050;-85
2023/09/19 10:17:03;;;;;;;0.00;0.00;;;18.90;99.90;;;;;;6214727;23;20008;-86
2023/09/19 10:19:46;;;;;;;0.00;0.00;;;18.80;99.90;;;;;;6214456;23;20001;-84
2023/09/19 10:22:14;;;;;;;0.00;0.00;;;18.70;99.90;;;;;;6214108;23;20400;-85
2023/09/19 10:24:41;;;;;;;0.00;0.00;;;18.80;99.90;;;;;;6214250;23;20103;-85
2023/09/19 10:27:10;;;;;;;0.00;0.00;;;18.80;99.90;;;;;;6211930;23;20054;-85
2023/09/19 10:29:39;;;;;;;0.00;0.00;;;18.80;99.90;;;;;;6212033;23;20005;-82
2023/09/19 10:32:06;;;;;;;0.00;0.00;;;19.00;99.90;;;;;;6214356;23;20069;-85
2023/09/19 10:34:41;;;;;;;0.00;0.00;;;19.00;99.90;;;;;;6212992;23;20004;-85
2023/09/19 10:37:11;;;;;;;0.00;0.00;;;19.20;99.90;;;;;;6215210;23;20012;-85
2023/09/19 10:39:40;;;;;;;0.00;0.00;;;19.20;99.90;;;;;;6215296;23;20008;-85
2023/09/19 10:42:07;;;;;;;0.00;0.00;;;;;;;;;;6215394;23;20434;-85
2023/09/19 10:44:33;;;;;;;0.00;0.00;;;19.40;99.90;;;;;;6215306;23;20004;-85
2023/09/19 10:46:59;;;;;;;0.00;0.00;;;19.50;99.90;;;;;;6214097;23;20007;-85
2023/09/19 10:49:25;;;;;;;0.00;0.00;;;19.50;99.90;;;;;;6214521;23;20000;-85
2023/09/19 10:51:58;;;;;;;0.00;0.00;;;19.60;99.90;;;;;;6242283;23;20011;-84
2023/09/19 10:54:34;;;;;;;0.00;0.00;;;19.70;99.90;;;;;;6215012;23;20008;-82
2023/09/19 10:57:00;;;;;;;0.00;0.00;;;19.60;99.90;;;;;;6212635;23;20454;-84
2023/09/19 10:59:34;;;;;;;0.00;0.00;;;19.60;99.90;;;;;;6214956;23;20394;-85
2023/09/19 11:02:15;;;;;;;0.00;0.00;;;19.70;99.90;;;;;;6215650;23;20091;-85
2023/09/19 11:04:40;;;;;;;0.00;0.00;;;19.80;99.90;;;;;;6212030;23;20173;-85
2023/09/19 11:07:15;;;;;;;0.00;0.00;;;;;;;;;;6222670;23;20018;-80
2023/09/19 11:09:48;;;;;;;0.00;0.00;;;19.80;99.90;;;;;;6219879;23;20028;-87
2023/09/19 11:12:35;;;;;;;0.00;0.00;;;19.80;99.90;;;;;;6213778;23;20008;-86
2023/09/19 11:15:05;;;;;;;0.00;0.00;;;19.70;99.90;;;;;;6216232;23;20008;-86
2023/09/19 11:17:31;;;;;;;0.00;0.00;;;19.70;99.90;;;;;;6215736;22;20024;-87
2023/09/19 11:20:24;;;;;;;0.00;0.00;;;19.80;99.90;;;;;;6215618;23;20012;-87
2023/09/19 11:23:13;;;;;;;0.00;0.00;;;19.90;99.90;;;;;;6242837;23;20008;-89
2023/09/19 11:25:47;;;;;;;0.00;0.00;;;19.80;99.90;;;;;;6215366;23;20004;-84
2023/09/19 11:28:17;;;;;;;0.00;0.00;;;20.10;99.90;;;;;;6215108;23;20001;-85
2023/09/19 11:30:48;;;;;;;0.00;0.00;;;20.10;99.90;;;;;;6215135;23;20007;-85
2023/09/19 11:33:31;;;;;;;0.00;0.00;;;20.30;99.90;;;;;;6215152;23;20011;-86
2023/09/19 11:36:18;;;;;;;0.00;0.00;;;20.30;99.90;;;;;;6215776;23;20347;-86
2023/09/19 11:38:50;;;;;;;0.00;0.00;;;20.40;99.90;;;;;;6240732;22;20450;-84
2023/09/19 11:41:21;;;;;;;0.00;0.00;;;21.50;99.90;;;;;;6240137;23;20011;-85
2023/09/19 11:43:51;;;;;;;0.00;0.00;;;20.70;99.90;;;;;;6214605;23;20085;-83
2023/09/19 11:46:21;;;;;;;0.00;0.00;;;20.70;99.90;;;;;;6215784;23;20007;-83
2023/09/19 11:48:49;;;;;;;0.00;0.00;;;20.90;99.90;;;;;;6243531;22;20010;-85
2023/09/19 11:51:21;;;;;;;0.00;0.00;;;20.80;99.90;;;;;;6216342;23;20004;-85
2023/09/19 11:53:48;;;;;;;0.00;0.00;;;21.00;99.90;;;;;;6215045;23;20008;-84
2023/09/19 11:56:17;;;;;;;0.00;0.00;;;21.20;99.90;;;;;;6216296;23;20000;-84
2023/09/19 11:58:47;;;;;;;0.00;0.00;;;21.20;99.90;;;;;;6210201;23;20005;-85
2023/09/19 12:01:14;;;;;;;0.00;0.00;;;21.20;99.90;;;;;;6216047;23;20015;-85
2023/09/19 12:03:47;;;;;;;0.00;0.00;;;21.10;99.90;;;;;;6216999;23;20012;-85
2023/09/19 12:06:14;;;;;;;0.00;0.00;;;21.10;99.90;;;;;;6215884;23;20004;-84
2023/09/19 12:08:46;;;;;;;0.00;0.00;;;21.10;99.90;;;;;;6212621;23;20035;-83
2023/09/19 12:11:16;;;;;;;0.00;0.00;;;21.10;99.90;;;;;;6216735;23;20088;-83
2023/09/19 12:13:44;;;;;;;0.00;0.00;;;21.10;99.90;;;;;;6216451;23;20000;-85
2023/09/19 12:16:17;;;;;;;0.00;0.00;;;21.10;99.90;;;;;;6216184;23;20004;-86
2023/09/19 12:18:47;;;;;;;0.00;0.00;;;21.00;99.90;;;;;;6216012;23;20416;-85
2023/09/19 12:21:22;;;;;;;;;;;21.00;99.90;;;;;;6215219;23;20008;-85
2023/09/19 12:24:13;;;;;;;0.00;0.00;;;21.20;99.90;;;;;;6215789;23;20013;-85
2023/09/19 12:26:47;;;;;;;0.00;0.00;;;21.00;99.90;;;;;;6216066;23;20008;-83
2023/09/19 12:29:41;;;;;;;0.00;0.00;;;21.10;99.90;;;;;;6215404;23;20028;-85
2023/09/19 12:32:07;;;;;;;0.00;0.00;;;21.20;99.90;;;;;;6216148;23;20087;-81
2023/09/19 12:34:34;;;;;;;0.00;0.00;;;21.30;99.90;;;;;;6242355;23;20044;-84
2023/09/19 12:37:27;;;;;;;0.00;0.00;;;21.20;99.90;;;;;;6216523;23;20058;-85
2023/09/19 12:39:54;;;;;;;0.00;0.00;;;21.30;99.90;;;;;;6214520;23;20355;-85
2023/09/19 12:42:24;;;;;;;0.00;0.00;;;21.30;99.90;;;;;;6242358;23;20011;-83
2023/09/19 12:44:57;;;;;;;0.00;0.00;;;21.30;99.90;;;;;;6243212;23;19996;-86
2023/09/19 12:47:24;;;;;;;0.00;0.00;;;21.20;99.90;;;;;;6216172;22;20501;-87
2023/09/19 12:50:06;;;;;;;0.00;0.00;;;21.20;99.90;;;;;;6243732;23;20004;-84
2023/09/19 12:52:43;;;;;;;0.00;0.00;;;21.00;99.90;;;;;;6215883;23;20012;-84
2023/09/19 12:55:22;;;;;;;0.00;0.00;;;21.00;99.90;;;;;;6216003;23;20387;-82
2023/09/19 12:57:57;;;;;;;0.00;0.00;;;21.20;99.90;;;;;;6216547;23;20008;-84
2023/09/19 13:00:35;;;;;;;0.00;0.00;;;21.10;99.90;;;;;;6242631;23;20011;-85
2023/09/19 13:03:28;;;;;;;0.00;0.00;;;21.10;99.90;;;;;;6215082;23;20008;-83
2023/09/19 13:05:59;;;;;;;0.00;0.00;;;21.00;99.90;;;;;;6208971;23;20004;-85
2023/09/19 13:08:38;;;;;;;0.00;0.00;;;20.90;99.90;;;;;;6215574;23;20671;-85
2023/09/19 13:11:09;;;;;;;0.00;0.00;;;20.90;99.90;;;;;;6216422;23;20004;-85
2023/09/19 13:14:15;;;;;;;0.00;0.00;;;21.00;99.90;;;;;;6214071;23;20008;-85
2023/09/19 13:17:19;;;;;;;0.00;0.00;;;21.00;99.90;;;;;;6141965;23;20035;-83
2023/09/19 13:19:49;;;;;;;0.00;0.00;;;20.80;99.90;;;;;;6217073;23;19996;-85
2023/09/19 13:22:38;;;;;;;0.00;0.00;;;20.80;99.90;;;;;;6243974;23;20012;-84
2023/09/19 13:25:08;;;;;;;0.00;0.00;;;20.80;99.90;;;;;;6216787;23;20382;-84
2023/09/19 13:27:34;;;;;;;0.00;0.00;;;20.70;99.90;;;;;;6216481;22;20511;-85
2023/09/19 13:29:59;;;;;;;0.00;0.00;;;20.70;99.90;;;;;;6217459;23;20450;-85
2023/09/19 13:32:26;;;;;;;0.00;0.00;;;20.60;99.90;;;;;;6217618;23;20004;-86
2023/09/19 13:34:51;;;;;;;0.00;0.00;;;20.70;99.90;;;;;;6216801;23;20446;-84
2023/09/19 13:37:18;;;;;;;0.00;0.00;;;;;;;;;;6217765;22;20008;-85
2023/09/19 13:39:47;;;;;;;0.00;0.00;;;;;;;;;;6216966;23;20008;-83